Time;durP1;ratioP1;P1;durP2;ratioP2;P2;SDS_P1;SDS_P2;PMS_P1;PMS_P2;Temp;Humidity;BMP_temperature;BMP_pressure;BME280_temperature;BME280_humidity;BME280_pressure;Samples;Min_cycle;Max_cycle;Signal;HPM_P1;HPM_P2
2023/04/23 00:01:06;;;;;;;5.07;4.57;;;;;;;;;;4950810;28;20707;-73
2023/04/23 00:03:33;;;;;;;5.78;4.65;;;;;;;;;;4945103;28;20222;-74
2023/04/23 00:05:59;;;;;;;4.97;4.60;;;;;;;;;;4960720;28;20647;-74
2023/04/23 00:08:25;;;;;;;4.88;4.47;;;;;;;;;;4934117;28;20221;-73
2023/04/23 00:10:51;;;;;;;5.50;5.00;;;;;;;;;;4956625;28;20222;-74
2023/04/23 00:13:19;;;;;;;5.68;5.13;;;;;;;;;;4969821;28;20222;-74
2023/04/23 00:15:45;;;;;;;5.53;5.13;;;;;;;;;;4947067;28;20603;-74
2023/04/23 00:18:15;;;;;;;6.05;5.55;;;;;;;;;;4942508;28;20272;-74
2023/04/23 00:20:46;;;;;;;5.57;5.18;;;;;;;;;;4942942;28;20214;-74
2023/04/23 00:23:11;;;;;;;5.93;5.43;;;;;;;;;;4947364;28;20221;-74
2023/04/23 00:25:37;;;;;;;5.88;5.38;;;;;;;;;;4959920;28;20731;-74
2023/04/23 00:28:07;;;;;;;6.18;5.57;;;;;;;;;;4960701;28;20251;-74
2023/04/23 00:30:35;;;;;;;6.65;6.05;;;;;;;;;;4948968;28;20274;-74
2023/04/23 00:33:03;;;;;;;6.53;6.03;;;;;;;;;;4951368;28;20271;-74
2023/04/23 00:35:31;;;;;;;6.75;6.15;;;;;;;;;;4948780;28;20222;-73
2023/04/23 00:37:57;;;;;;;5.90;5.40;;;;;;;;;;4935599;28;20229;-75
2023/04/23 00:40:23;;;;;;;7.00;6.40;;;;;;;;;;4953183;28;20226;-75
2023/04/23 00:42:52;;;;;;;7.28;6.68;;;;;;;;;;4951870;28;20222;-73
2023/04/23 00:45:22;;;;;;;7.20;6.50;;;;;;;;;;4949055;28;20642;-74
2023/04/23 00:47:50;;;;;;;6.82;6.22;;;;;;;;;;4957304;28;20228;-75
2023/04/23 00:50:16;;;;;;;7.05;6.45;;;;;;;;;;4943308;28;20706;-74
2023/04/23 00:52:46;;;;;;;6.93;6.43;;;;;;;;;;4958686;28;20228;-74
2023/04/23 00:55:12;;;;;;;7.50;6.90;;;;;;;;;;4930463;28;20218;-74
2023/04/23 00:57:40;;;;;;;7.43;6.80;;;;;;;;;;4977604;28;20608;-73
2023/04/23 01:00:06;;;;;;;7.53;6.93;;;;;;;;;;4937601;28;20229;-74
2023/04/23 01:02:32;;;;;;;7.50;6.90;;;;;;;;;;4930192;28;20224;-73
2023/04/23 01:04:59;;;;;;;7.90;7.20;;;;;;;;;;4925665;28;20213;-74
2023/04/23 01:07:27;;;;;;;8.02;7.20;;;;;;;;;;4986405;28;20892;-73
2023/04/23 01:09:53;;;;;;;7.20;6.70;;;;;;;;;;4961297;28;20222;-74
2023/04/23 01:12:18;;;;;;;7.78;7.10;;;;;;;;;;4928977;28;20570;-74
2023/04/23 01:14:48;;;;;;;7.53;6.93;;;;;;;;;;4952560;28;20221;-74
2023/04/23 01:17:16;;;;;;;8.30;7.60;;;;;;;;;;4934523;28;20226;-73
2023/04/23 01:19:44;;;;;;;7.72;7.00;;;;;;;;;;4937505;28;20225;-73
2023/04/23 01:22:18;;;;;;;7.45;6.85;;;;;;;;;;4964531;28;21883;-74
2023/04/23 01:24:48;;;;;;;8.32;7.53;;;;;;;;;;4944919;28;20250;-74
2023/04/23 01:27:18;;;;;;;8.55;7.85;;;;;;;;;;4958536;28;20217;-74
2023/04/23 01:29:44;;;;;;;8.90;8.13;;;;;;;;;;4959272;28;20226;-73
2023/04/23 01:32:12;;;;;;;9.43;8.63;;;;;;;;;;4951302;28;20218;-73
2023/04/23 01:34:40;;;;;;;9.02;8.32;;;;;;;;;;4919548;28;20229;-73
2023/04/23 01:37:05;;;;;;;9.20;8.48;;;;;;;;;;4929397;28;20232;-73
2023/04/23 01:39:34;;;;;;;9.18;8.38;;;;;;;;;;4932218;28;20230;-73
2023/04/23 01:42:01;;;;;;;9.57;8.77;;;;;;;;;;4933302;28;20269;-73
2023/04/23 01:44:27;;;;;;;9.07;8.27;;;;;;;;;;4938014;28;20326;-73
2023/04/23 01:46:52;;;;;;;9.43;8.52;;;;;;;;;;4935277;28;20719;-74
2023/04/23 01:49:20;;;;;;;9.40;8.60;;;;;;;;;;4938440;28;20210;-73
2023/04/23 01:51:45;;;;;;;10.05;9.25;;;;;;;;;;4930626;28;20222;-74
2023/04/23 01:54:11;;;;;;;11.15;10.20;;;;;;;;;;4915994;28;20228;-73
2023/04/23 01:56:39;;;;;;;13.13;11.88;;;;;;;;;;4950639;28;20377;-73
2023/04/23 01:59:07;;;;;;;12.70;11.68;;;;;;;;;;4936605;28;20226;-74
2023/04/23 02:01:47;;;;;;;13.23;12.13;;;;;;;;;;4963830;28;20225;-73
2023/04/23 02:04:19;;;;;;;13.73;12.52;;;;;;;;;;4949967;28;21720;-74
2023/04/23 02:06:49;;;;;;;14.82;13.50;;;;;;;;;;5014360;28;20240;-73
2023/04/23 02:09:17;;;;;;;14.82;13.63;;;;;;;;;;4951245;28;20308;-73
2023/04/23 02:11:43;;;;;;;15.18;13.88;;;;;;;;;;4928993;28;20343;-73
2023/04/23 02:14:10;;;;;;;15.60;14.15;;;;;;;;;;4960522;28;20228;-75
2023/04/23 02:16:38;;;;;;;16.63;15.23;;;;;;;;;;4945275;28;20645;-73
2023/04/23 02:19:08;;;;;;;14.23;12.98;;;;;;;;;;4960680;28;20233;-73
2023/04/23 02:21:34;;;;;;;13.50;12.40;;;;;;;;;;4962126;28;20599;-73
2023/04/23 02:24:04;;;;;;;13.10;12.05;;;;;;;;;;4939263;28;20760;-73
2023/04/23 02:26:32;;;;;;;13.68;12.57;;;;;;;;;;4973452;28;20628;-73
2023/04/23 02:28:58;;;;;;;14.30;13.10;;;;;;;;;;4948259;28;20729;-73
2023/04/23 02:31:28;;;;;;;19.98;18.27;;;;;;;;;;4931099;28;20225;-73
2023/04/23 02:33:56;;;;;;;23.92;21.80;;;;;;;;;;4947763;28;20919;-73
2023/04/23 02:36:21;;;;;;;24.98;22.77;;;;;;;;;;4973677;28;20302;-73
2023/04/23 02:38:50;;;;;;;29.08;26.58;;;;;;;;;;4989253;28;20714;-73
2023/04/23 02:41:15;;;;;;;29.33;26.67;;;;;;;;;;4941156;28;20221;-73
2023/04/23 02:43:41;;;;;;;31.10;28.27;;;;;;;;;;4937580;28;20775;-72
2023/04/23 02:46:11;;;;;;;33.28;30.17;;;;;;;;;;4956142;28;20222;-73
2023/04/23 02:48:40;;;;;;;36.08;32.70;;;;;;;;;;4936379;28;20224;-73
2023/04/23 02:51:07;;;;;;;37.73;34.13;;;;;;;;;;4960932;28;20573;-73
2023/04/23 02:53:35;;;;;;;37.00;33.60;;;;;;;;;;4934656;28;20314;-74
2023/04/23 02:56:06;;;;;;;38.73;34.80;;;;;;;;;;4946167;28;20230;-74
2023/04/23 02:58:33;;;;;;;37.30;33.87;;;;;;;;;;4943126;28;20273;-74
2023/04/23 03:01:01;;;;;;;38.53;34.80;;;;;;;;;;4950475;28;20827;-74
2023/04/23 03:03:30;;;;;;;38.43;34.73;;;;;;;;;;4943124;28;20311;-74
2023/04/23 03:05:59;;;;;;;40.30;36.27;;;;;;;;;;4959424;28;20301;-75
2023/04/23 03:08:27;;;;;;;39.43;35.53;;;;;;;;;;4962988;28;20305;-75
2023/04/23 03:10:55;;;;;;;39.77;35.90;;;;;;;;;;4944800;28;20222;-74
2023/04/23 03:13:23;;;;;;;39.13;35.03;;;;;;;;;;4959136;28;20702;-74
2023/04/23 03:15:49;;;;;;;42.90;38.53;;;;;;;;;;4926673;28;20730;-74
2023/04/23 03:18:16;;;;;;;43.43;38.93;;;;;;;;;;4961945;28;20302;-74
2023/04/23 03:20:49;;;;;;;41.30;37.30;;;;;;;;;;4960005;28;20580;-74
2023/04/23 03:23:16;;;;;;;41.83;37.80;;;;;;;;;;4950186;28;20612;-74
2023/04/23 03:25:42;;;;;;;38.97;35.20;;;;;;;;;;4931644;28;20233;-74
2023/04/23 03:28:08;;;;;;;38.67;34.93;;;;;;;;;;4954297;28;20236;-74
2023/04/23 03:30:35;;;;;;;38.07;34.40;;;;;;;;;;4914256;28;20304;-74
2023/04/23 03:33:01;;;;;;;39.77;35.87;;;;;;;;;;4946262;28;20236;-74
2023/04/23 03:35:30;;;;;;;39.23;35.53;;;;;;;;;;4937630;28;20236;-74
2023/04/23 03:38:00;;;;;;;40.13;36.37;;;;;;;;;;4938660;28;20233;-74
2023/04/23 03:40:28;;;;;;;40.30;36.40;;;;;;;;;;4938109;28;20225;-74
2023/04/23 03:42:58;;;;;;;41.07;37.17;;;;;;;;;;4949736;28;20225;-74
2023/04/23 03:45:40;;;;;;;41.63;37.47;;;;;;;;;;4963178;28;20229;-73
2023/04/23 03:48:10;;;;;;;41.97;37.87;;;;;;;;;;4960074;28;20231;-74
2023/04/23 03:50:39;;;;;;;44.60;40.30;;;;;;;;;;4965483;28;20225;-74
2023/04/23 03:53:16;;;;;;;44.43;40.27;;;;;;;;;;4963641;28;20226;-74
2023/04/23 03:56:14;;;;;;;44.43;40.10;;;;;;;;;;5028107;28;20222;-74
2023/04/23 03:58:50;;;;;;;43.57;39.27;;;;;;;;;;4939133;28;20222;-73
2023/04/23 04:01:18;;;;;;;43.83;39.47;;;;;;;;;;4953184;28;20221;-74
2023/04/23 04:03:46;;;;;;;45.37;40.77;;;;;;;;;;5004175;28;20607;-74
2023/04/23 04:06:19;;;;;;;44.07;39.77;;;;;;;;;;4963812;28;20226;-74
2023/04/23 04:08:47;;;;;;;43.60;39.23;;;;;;;;;;4962462;28;20233;-75
2023/04/23 04:11:14;;;;;;;44.30;39.80;;;;;;;;;;4953037;28;20234;-74
2023/04/23 04:13:42;;;;;;;43.00;38.70;;;;;;;;;;4938310;28;20241;-75
2023/04/23 04:16:08;;;;;;;38.63;34.73;;;;;;;;;;4950023;28;20237;-75
2023/04/23 04:18:38;;;;;;;39.20;35.20;;;;;;;;;;4942001;28;20210;-75
2023/04/23 04:21:06;;;;;;;36.60;32.93;;;;;;;;;;4963254;28;20606;-74
2023/04/23 04:23:32;;;;;;;36.20;32.63;;;;;;;;;;4947595;28;20679;-74
2023/04/23 04:26:00;;;;;;;35.23;31.73;;;;;;;;;;4951206;28;20225;-74
2023/04/23 04:28:28;;;;;;;33.87;30.57;;;;;;;;;;4933714;28;20218;-74
2023/04/23 04:30:56;;;;;;;33.10;29.57;;;;;;;;;;4952767;28;20233;-74
2023/04/23 04:33:26;;;;;;;30.90;27.80;;;;;;;;;;4932499;28;20284;-74
2023/04/23 04:35:54;;;;;;;29.47;26.57;;;;;;;;;;4964056;28;20286;-74
2023/04/23 04:38:22;;;;;;;29.70;26.80;;;;;;;;;;5026156;23;20229;-83
2023/04/23 04:40:49;;;;;;;27.63;25.03;;;;;;;;;;5085218;28;20219;-82
2023/04/23 04:43:17;;;;;;;27.80;25.00;;;;;;;;;;5066528;28;20238;-83
2023/04/23 04:45:43;;;;;;;27.77;24.60;;;;;;;;;;5051439;28;20280;-83
2023/04/23 04:48:12;;;;;;;28.30;25.30;;;;;;;;;;5065400;28;20222;-82
2023/04/23 04:50:40;;;;;;;30.23;26.67;;;;;;;;;;5069199;28;20225;-82
2023/04/23 04:53:10;;;;;;;29.27;26.37;;;;;;;;;;5082606;28;20293;-82
2023/04/23 04:55:35;;;;;;;30.03;27.33;;;;;;;;;;5056110;28;20243;-82
2023/04/23 04:58:03;;;;;;;30.57;27.60;;;;;;;;;;5063887;28;20202;-82
2023/04/23 05:00:31;;;;;;;31.00;27.93;;;;;;;;;;5057004;28;20302;-83
2023/04/23 05:03:01;;;;;;;29.87;26.97;;;;;;;;;;5080544;28;20282;-83
2023/04/23 05:05:33;;;;;;;29.97;27.07;;;;;;;;;;5089515;28;20203;-83
2023/04/23 05:08:03;;;;;;;30.50;27.43;;;;;;;;;;5064431;28;20210;-83
2023/04/23 05:10:31;;;;;;;31.23;28.03;;;;;;;;;;5042999;28;20254;-83
2023/04/23 05:12:57;;;;;;;31.17;28.07;;;;;;;;;;5067353;28;20202;-83
2023/04/23 05:15:27;;;;;;;31.73;28.53;;;;;;;;;;5087784;28;20294;-82
2023/04/23 05:17:58;;;;;;;31.33;28.07;;;;;;;;;;5072084;28;20222;-82
2023/04/23 05:20:24;;;;;;;31.27;28.17;;;;;;;;;;5071837;22;20229;-74
2023/04/23 05:22:49;;;;;;;31.33;28.27;;;;;;;;;;4939096;28;20223;-75
2023/04/23 05:25:17;;;;;;;31.47;28.20;;;;;;;;;;4936262;28;20280;-74
2023/04/23 05:27:42;;;;;;;30.67;27.67;;;;;;;;;;4970406;28;20223;-74
2023/04/23 05:30:08;;;;;;;30.73;27.73;;;;;;;;;;4936079;28;20222;-74
2023/04/23 05:32:37;;;;;;;31.20;28.30;;;;;;;;;;4957169;28;20292;-74
2023/04/23 05:35:02;;;;;;;32.07;28.67;;;;;;;;;;4961901;28;20242;-74
2023/04/23 05:37:30;;;;;;;31.93;28.73;;;;;;;;;;4917360;28;20289;-74
2023/04/23 05:39:58;;;;;;;31.30;28.00;;;;;;;;;;4939994;28;20529;-73
2023/04/23 05:42:26;;;;;;;32.10;28.97;;;;;;;;;;4952166;28;20246;-73
2023/04/23 05:44:54;;;;;;;31.93;28.83;;;;;;;;;;4993619;28;20300;-75
2023/04/23 05:47:20;;;;;;;32.77;29.37;;;;;;;;;;4927977;28;20317;-74
2023/04/23 05:49:51;;;;;;;34.40;30.80;;;;;;;;;;4960723;28;20224;-74
2023/04/23 05:52:19;;;;;;;35.17;31.57;;;;;;;;;;4942536;28;20219;-74
2023/04/23 05:54:45;;;;;;;35.73;31.93;;;;;;;;;;4943519;28;20238;-74
2023/04/23 05:57:11;;;;;;;35.33;31.83;;;;;;;;;;4930760;28;20740;-74
2023/04/23 05:59:36;;;;;;;36.07;32.47;;;;;;;;;;4926641;28;20365;-74
2023/04/23 06:02:04;;;;;;;36.10;32.50;;;;;;;;;;4963168;28;20703;-74
2023/04/23 06:04:32;;;;;;;34.93;31.33;;;;;;;;;;4928936;28;20599;-74
2023/04/23 06:07:00;;;;;;;33.70;30.37;;;;;;;;;;4940648;28;20721;-74
2023/04/23 06:09:28;;;;;;;34.80;31.20;;;;;;;;;;4960539;28;20219;-74
2023/04/23 06:11:59;;;;;;;32.93;29.70;;;;;;;;;;4955587;28;20219;-75
2023/04/23 06:14:25;;;;;;;33.00;29.63;;;;;;;;;;4957981;28;20350;-74
2023/04/23 06:16:55;;;;;;;32.83;29.50;;;;;;;;;;4931726;28;20254;-73
2023/04/23 06:19:21;;;;;;;31.77;28.47;;;;;;;;;;4971899;23;20324;-85
2023/04/23 06:21:46;;;;;;;30.93;27.70;;;;;;;;;;4958730;28;20235;-85
2023/04/23 06:24:17;;;;;;;30.10;27.00;;;;;;;;;;4938349;28;20253;-83
2023/04/23 06:26:42;;;;;;;29.87;26.87;;;;;;;;;;4925010;28;20212;-84
2023/04/23 06:29:16;;;;;;;29.60;26.50;;;;;;;;;;4939982;28;20221;-85
2023/04/23 06:32:03;;;;;;;28.87;25.83;;;;;;;;;;4933702;28;20632;-83
2023/04/23 06:34:29;;;;;;;29.67;26.63;;;;;;;;;;4929081;28;20276;-85
2023/04/23 06:36:58;;;;;;;28.77;25.87;;;;;;;;;;4968450;28;20224;-86
2023/04/23 06:39:23;;;;;;;27.50;24.73;;;;;;;;;;4946604;28;20593;-86
2023/04/23 06:41:49;;;;;;;27.57;24.83;;;;;;;;;;4960017;28;20218;-83
2023/04/23 06:44:28;;;;;;;26.83;23.93;;;;;;;;;;4986707;28;20240;-83
2023/04/23 06:46:56;;;;;;;26.23;23.73;;;;;;;;;;4937564;28;20264;-82
2023/04/23 06:49:22;;;;;;;27.23;24.50;;;;;;;;;;4968526;28;20213;-83
2023/04/23 06:51:48;;;;;;;27.03;24.30;;;;;;;;;;4977788;28;20836;-85
2023/04/23 06:54:15;;;;;;;27.50;24.70;;;;;;;;;;4949032;28;20228;-85
2023/04/23 06:56:43;;;;;;;27.10;24.40;;;;;;;;;;4974541;28;20688;-84
2023/04/23 06:59:12;;;;;;;27.93;25.00;;;;;;;;;;4943952;28;20613;-85
2023/04/23 07:01:45;;;;;;;27.30;24.63;;;;;;;;;;4948210;28;20228;-84
2023/04/23 07:04:15;;;;;;;27.70;24.93;;;;;;;;;;4943327;28;20272;-85
2023/04/23 07:06:49;;;;;;;26.97;24.37;;;;;;;;;;4968713;28;20225;-84
2023/04/23 07:09:14;;;;;;;28.47;25.47;;;;;;;;;;4945295;28;20225;-84
2023/04/23 07:11:42;;;;;;;28.07;25.33;;;;;;;;;;4962723;28;20259;-84
2023/04/23 07:14:08;;;;;;;28.47;25.60;;;;;;;;;;4945759;28;20245;-83
2023/04/23 07:16:35;;;;;;;27.00;24.20;;;;;;;;;;4943110;28;20228;-84
2023/04/23 07:19:06;;;;;;;25.97;23.37;;;;;;;;;;4961289;28;20248;-84
2023/04/23 07:21:34;;;;;;;26.77;24.17;;;;;;;;;;4962736;28;20224;-86
2023/04/23 07:24:05;;;;;;;25.00;22.60;;;;;;;;;;4945697;28;20248;-82
2023/04/23 07:26:34;;;;;;;25.20;22.70;;;;;;;;;;4943188;28;20374;-85
2023/04/23 07:29:02;;;;;;;23.40;21.03;;;;;;;;;;4871908;28;20224;-82
2023/04/23 07:31:27;;;;;;;20.70;18.75;;;;;;;;;;4974451;28;20229;-83
2023/04/23 07:33:54;;;;;;;22.25;20.15;;;;;;;;;;4931009;29;20588;-85
2023/04/23 07:36:40;;;;;;;21.25;19.35;;;;;;;;;;4935389;28;20315;-83
2023/04/23 07:39:05;;;;;;;21.60;19.47;;;;;;;;;;4966566;28;20254;-83
2023/04/23 07:41:31;;;;;;;21.02;19.02;;;;;;;;;;4909305;28;20233;-83
2023/04/23 07:43:59;;;;;;;21.10;19.02;;;;;;;;;;4960969;28;20337;-85
2023/04/23 07:46:25;;;;;;;20.17;18.30;;;;;;;;;;4950095;28;20233;-83
2023/04/23 07:48:51;;;;;;;19.38;17.58;;;;;;;;;;4986159;28;20780;-84
2023/04/23 07:51:21;;;;;;;19.17;17.27;;;;;;;;;;4986292;28;20229;-86
2023/04/23 07:53:49;;;;;;;18.42;16.75;;;;;;;;;;4921435;28;20703;-83
2023/04/23 07:56:16;;;;;;;17.55;15.93;;;;;;;;;;4956958;28;20240;-84
2023/04/23 07:58:41;;;;;;;16.70;15.20;;;;;;;;;;4926591;28;20248;-85
2023/04/23 08:01:07;;;;;;;17.42;15.73;;;;;;;;;;4973862;28;20228;-86
2023/04/23 08:03:32;;;;;;;16.42;14.77;;;;;;;;;;4939011;28;20237;-85
2023/04/23 08:05:58;;;;;;;16.60;14.95;;;;;;;;;;4877438;29;20260;-87
2023/04/23 08:08:23;;;;;;;16.88;15.18;;;;;;;;;;4945500;28;20228;-86
2023/04/23 08:10:49;;;;;;;16.70;15.20;;;;;;;;;;4956998;28;20233;-85
2023/04/23 08:13:18;;;;;;;18.23;16.35;;;;;;;;;;4947053;28;20225;-85
2023/04/23 08:15:47;;;;;;;17.98;16.38;;;;;;;;;;4922865;29;20277;-85
2023/04/23 08:18:13;;;;;;;18.48;16.67;;;;;;;;;;4958706;28;20236;-87
2023/04/23 08:20:44;;;;;;;17.03;15.43;;;;;;;;;;4946117;28;20275;-83
2023/04/23 08:23:12;;;;;;;16.90;15.40;;;;;;;;;;4926676;28;20225;-86
2023/04/23 08:25:40;;;;;;;16.67;15.18;;;;;;;;;;4960164;28;20221;-85
2023/04/23 08:28:07;;;;;;;15.15;13.68;;;;;;;;;;4907541;28;20222;-86
2023/04/23 08:30:35;;;;;;;15.95;14.48;;;;;;;;;;4939400;28;20686;-85
2023/04/23 08:33:03;;;;;;;15.05;13.65;;;;;;;;;;4943157;28;20229;-86
2023/04/23 08:35:29;;;;;;;16.08;14.45;;;;;;;;;;4974085;28;20223;-86
2023/04/23 08:37:57;;;;;;;16.40;14.80;;;;;;;;;;4924925;28;20781;-84
2023/04/23 08:40:23;;;;;;;15.50;13.98;;;;;;;;;;4972902;28;20252;-86
2023/04/23 08:42:54;;;;;;;13.95;12.65;;;;;;;;;;4921150;29;20729;-84
2023/04/23 08:45:20;;;;;;;15.60;13.98;;;;;;;;;;4874994;28;20340;-85
2023/04/23 08:47:51;;;;;;;14.80;13.40;;;;;;;;;;4945959;28;20243;-83
2023/04/23 08:50:17;;;;;;;13.13;11.95;;;;;;;;;;4954259;28;20225;-85
2023/04/23 08:52:55;;;;;;;11.77;10.70;;;;;;;;;;4941949;28;20220;-86
2023/04/23 08:55:21;;;;;;;11.77;10.77;;;;;;;;;;4900660;28;20235;-84
2023/04/23 08:57:47;;;;;;;10.75;9.75;;;;;;;;;;4961619;28;20304;-85
2023/04/23 09:00:14;;;;;;;10.43;9.45;;;;;;;;;;4926896;28;20286;-80
2023/04/23 09:02:40;;;;;;;9.93;9.00;;;;;;;;;;4941540;28;20230;-81
2023/04/23 09:05:07;;;;;;;8.98;8.18;;;;;;;;;;4931486;28;20857;-80
2023/04/23 09:07:33;;;;;;;8.43;7.80;;;;;;;;;;4959485;28;20312;-82
2023/04/23 09:09:59;;;;;;;10.63;8.07;;;;;;;;;;4945318;28;20227;-83
2023/04/23 09:12:24;;;;;;;8.90;8.10;;;;;;;;;;4940549;28;20224;-83
2023/04/23 09:14:50;;;;;;;9.43;8.60;;;;;;;;;;4933173;29;20320;-83
2023/04/23 09:17:19;;;;;;;8.80;8.07;;;;;;;;;;4959417;28;20230;-80
2023/04/23 09:19:45;;;;;;;9.68;8.77;;;;;;;;;;4898292;28;20255;-80
2023/04/23 09:22:11;;;;;;;9.02;8.32;;;;;;;;;;4968627;28;20723;-83
2023/04/23 09:24:38;;;;;;;9.05;8.35;;;;;;;;;;4908215;28;20287;-80
2023/04/23 09:27:04;;;;;;;8.15;7.40;;;;;;;;;;4955364;28;20226;-81
2023/04/23 09:29:32;;;;;;;9.35;7.68;;;;;;;;;;4980511;28;20304;-82
2023/04/23 09:32:07;;;;;;;8.10;6.93;;;;;;;;;;4942815;28;20229;-81
2023/04/23 09:34:34;;;;;;;7.25;6.65;;;;;;;;;;4964204;28;20609;-83
2023/04/23 09:36:59;;;;;;;7.00;6.30;;;;;;;;;;4938737;28;20229;-83
2023/04/23 09:39:27;;;;;;;6.82;6.22;;;;;;;;;;4953700;28;20221;-82
2023/04/23 09:41:55;;;;;;;8.00;7.20;;;;;;;;;;5002098;23;20226;-73
2023/04/23 09:44:21;;;;;;;7.65;6.95;;;;;;;;;;5037358;28;20229;-74
2023/04/23 09:46:47;;;;;;;8.18;7.40;;;;;;;;;;5036180;28;20222;-73
2023/04/23 09:49:17;;;;;;;7.90;7.20;;;;;;;;;;5035403;28;20215;-74
2023/04/23 09:51:45;;;;;;;7.97;6.72;;;;;;;;;;5069347;28;20597;-74
2023/04/23 09:54:13;;;;;;;6.88;6.25;;;;;;;;;;5052003;28;20321;-73
2023/04/23 09:56:43;;;;;;;7.22;6.53;;;;;;;;;;5051921;28;20222;-74
2023/04/23 09:59:32;;;;;;;6.90;6.20;;;;;;;;;;5051397;28;20231;-75
2023/04/23 10:02:04;;;;;;;7.40;6.80;;;;;;;;;;5027917;28;20248;-73
2023/04/23 10:04:33;;;;;;;6.88;6.28;;;;;;;;;;5060384;28;20217;-75
2023/04/23 10:07:00;;;;;;;7.40;6.70;;;;;;;;;;5035871;28;20227;-74
2023/04/23 10:09:27;;;;;;;7.72;6.90;;;;;;;;;;5052420;28;20292;-74
2023/04/23 10:12:00;;;;;;;7.13;6.40;;;;;;;;;;5026221;28;20308;-74
2023/04/23 10:14:30;;;;;;;7.05;6.13;;;;;;;;;;5069759;28;20726;-75
2023/04/23 10:17:00;;;;;;;6.18;5.68;;;;;;;;;;5027195;28;20226;-74
2023/04/23 10:19:29;;;;;;;6.40;5.78;;;;;;;;;;5068007;28;20218;-74
2023/04/23 10:21:56;;;;;;;6.80;6.20;;;;;;;;;;5068298;28;20515;-74
2023/04/23 10:24:27;;;;;;;7.03;6.40;;;;;;;;;;5035499;28;20238;-73
2023/04/23 10:26:59;;;;;;;6.60;6.00;;;;;;;;;;5030289;28;20218;-73
2023/04/23 10:29:32;;;;;;;6.60;6.07;;;;;;;;;;5062677;28;20685;-74
2023/04/23 10:32:01;;;;;;;6.32;5.82;;;;;;;;;;5059228;28;20610;-73
2023/04/23 10:34:28;;;;;;;5.85;5.35;;;;;;;;;;5051724;28;20214;-74
2023/04/23 10:36:55;;;;;;;5.55;5.05;;;;;;;;;;5068060;28;20301;-74
2023/04/23 10:39:21;;;;;;;6.20;5.60;;;;;;;;;;5029873;28;20253;-74
2023/04/23 10:41:49;;;;;;;6.32;5.72;;;;;;;;;;5048550;28;20238;-74
2023/04/23 10:44:20;;;;;;;5.82;5.28;;;;;;;;;;5053478;28;20218;-73
2023/04/23 10:46:53;;;;;;;5.80;5.15;;;;;;;;;;5027050;28;20211;-74
2023/04/23 10:49:18;;;;;;;7.20;5.22;;;;;;;;;;5082139;28;20234;-74
2023/04/23 10:51:47;;;;;;;5.30;4.90;;;;;;;;;;5036808;28;20229;-74
2023/04/23 10:54:13;;;;;;;4.80;4.30;;;;;;;;;;5044687;28;20230;-74
2023/04/23 10:56:40;;;;;;;4.82;4.30;;;;;;;;;;5052782;28;20249;-73
2023/04/23 10:59:19;;;;;;;4.82;4.40;;;;;;;;;;5051729;28;20218;-73
2023/04/23 11:01:49;;;;;;;4.68;4.38;;;;;;;;;;5048204;28;20214;-73
2023/04/23 11:04:27;;;;;;;4.75;4.25;;;;;;;;;;5078358;28;20229;-76
2023/04/23 11:07:05;;;;;;;4.50;4.05;;;;;;;;;;5064671;28;20218;-73
2023/04/23 11:09:33;;;;;;;4.88;4.45;;;;;;;;;;5062034;28;20210;-74
2023/04/23 11:12:00;;;;;;;4.57;4.18;;;;;;;;;;5065517;28;20245;-73
2023/04/23 11:14:53;;;;;;;4.65;4.13;;;;;;;;;;5053776;28;20229;-74
2023/04/23 11:17:30;;;;;;;3.90;3.55;;;;;;;;;;5051603;28;20287;-74
2023/04/23 11:20:12;;;;;;;3.92;3.63;;;;;;;;;;5085079;28;20218;-74
2023/04/23 11:22:44;;;;;;;4.72;4.38;;;;;;;;;;5068897;28;20222;-73
2023/04/23 11:25:14;;;;;;;4.72;4.32;;;;;;;;;;5078167;28;20218;-73
2023/04/23 11:27:42;;;;;;;4.53;4.15;;;;;;;;;;5037588;28;20217;-74
2023/04/23 11:30:15;;;;;;;4.22;3.92;;;;;;;;;;5052877;28;20643;-76
2023/04/23 11:32:41;;;;;;;4.30;3.97;;;;;;;;;;5064401;28;20233;-75
2023/04/23 11:35:08;;;;;;;3.63;3.33;;;;;;;;;;5052998;28;20219;-73
2023/04/23 11:37:37;;;;;;;3.95;3.65;;;;;;;;;;5047632;28;20644;-73
2023/04/23 11:40:17;;;;;;;4.72;3.75;;;;;;;;;;5067153;28;20367;-74
2023/04/23 11:42:47;;;;;;;4.03;3.72;;;;;;;;;;5063656;28;20213;-74
2023/04/23 11:45:27;;;;;;;3.60;3.30;;;;;;;;;;5051914;28;20644;-74
2023/04/23 11:47:59;;;;;;;4.55;4.10;;;;;;;;;;5067146;28;20214;-74
2023/04/23 11:50:34;;;;;;;4.40;4.00;;;;;;;;;;5067781;28;20694;-73
2023/04/23 11:53:04;;;;;;;4.72;4.20;;;;;;;;;;5072753;28;20210;-74
2023/04/23 11:55:32;;;;;;;4.30;3.90;;;;;;;;;;5070745;28;20268;-74
2023/04/23 11:58:02;;;;;;;4.20;3.80;;;;;;;;;;5064144;28;20225;-77
2023/04/23 12:00:30;;;;;;;3.97;3.67;;;;;;;;;;5067361;28;20218;-75
2023/04/23 12:02:57;;;;;;;4.50;4.07;;;;;;;;;;5034350;28;20245;-74
2023/04/23 12:05:26;;;;;;;4.28;3.88;;;;;;;;;;5070311;28;20368;-74
2023/04/23 12:07:52;;;;;;;3.83;3.40;;;;;;;;;;5066100;28;20572;-74
2023/04/23 12:10:21;;;;;;;3.72;3.40;;;;;;;;;;5065930;28;20683;-74
2023/04/23 12:12:53;;;;;;;3.50;3.15;;;;;;;;;;5066014;28;20218;-73
2023/04/23 12:15:21;;;;;;;3.53;3.15;;;;;;;;;;5080561;28;20721;-73
2023/04/23 12:17:50;;;;;;;3.33;3.10;;;;;;;;;;5052788;28;20718;-74
2023/04/23 12:20:19;;;;;;;3.15;2.83;;;;;;;;;;5054860;28;20214;-74
2023/04/23 12:22:48;;;;;;;3.50;2.58;;;;;;;;;;5055347;28;20206;-74
2023/04/23 12:25:14;;;;;;;3.28;2.97;;;;;;;;;;5035943;28;20207;-74
2023/04/23 12:27:46;;;;;;;3.25;2.78;;;;;;;;;;5032879;28;20667;-73
2023/04/23 12:30:11;;;;;;;3.50;3.20;;;;;;;;;;5046174;28;20246;-72
2023/04/23 12:32:40;;;;;;;3.53;3.20;;;;;;;;;;5050991;28;20215;-74
2023/04/23 12:35:07;;;;;;;3.50;3.20;;;;;;;;;;5047514;28;20255;-74
2023/04/23 12:37:34;;;;;;;4.65;4.13;;;;;;;;;;5067054;28;20699;-74
2023/04/23 12:40:05;;;;;;;3.78;3.47;;;;;;;;;;5063307;28;20658;-74
2023/04/23 12:42:35;;;;;;;4.40;3.95;;;;;;;;;;5065638;28;20225;-75
2023/04/23 12:45:07;;;;;;;4.15;3.38;;;;;;;;;;5046591;28;20227;-73
2023/04/23 12:47:33;;;;;;;5.03;3.90;;;;;;;;;;5072436;28;20222;-74
2023/04/23 12:50:04;;;;;;;4.32;3.92;;;;;;;;;;5044998;28;20726;-73
2023/04/23 12:52:32;;;;;;;3.55;3.25;;;;;;;;;;5064017;28;20272;-73
2023/04/23 12:55:00;;;;;;;3.63;3.33;;;;;;;;;;5055781;28;20215;-73
2023/04/23 12:57:26;;;;;;;4.80;4.30;;;;;;;;;;5046826;28;20303;-73
2023/04/23 12:59:53;;;;;;;4.97;4.50;;;;;;;;;;5065430;28;20272;-73
2023/04/23 13:02:24;;;;;;;5.25;4.10;;;;;;;;;;5066317;28;20271;-73
2023/04/23 13:04:58;;;;;;;4.22;3.78;;;;;;;;;;5055863;28;20263;-73
2023/04/23 13:07:23;;;;;;;4.30;3.90;;;;;;;;;;5038992;28;20236;-73
2023/04/23 13:09:49;;;;;;;4.85;4.35;;;;;;;;;;5066805;28;20202;-72
2023/04/23 13:12:19;;;;;;;4.63;4.20;;;;;;;;;;5046700;28;20222;-73
2023/04/23 13:14:45;;;;;;;4.90;4.35;;;;;;;;;;5070552;28;20210;-73
2023/04/23 13:17:15;;;;;;;4.43;4.10;;;;;;;;;;5064600;28;20223;-73
2023/04/23 13:19:43;;;;;;;5.05;4.25;;;;;;;;;;5071841;28;20221;-74
2023/04/23 13:22:13;;;;;;;4.68;4.20;;;;;;;;;;5054247;28;20222;-73
2023/04/23 13:24:39;;;;;;;4.30;3.90;;;;;;;;;;5072054;28;20222;-73
2023/04/23 13:27:12;;;;;;;3.83;3.22;;;;;;;;;;5082604;28;20287;-74
2023/04/23 13:29:39;;;;;;;3.38;3.08;;;;;;;;;;5053211;28;20221;-73
2023/04/23 13:32:05;;;;;;;4.72;3.05;;;;;;;;;;5020974;28;20627;-73
2023/04/23 13:34:31;;;;;;;3.00;2.70;;;;;;;;;;5060672;28;20218;-74
2023/04/23 13:36:57;;;;;;;4.40;2.70;;;;;;;;;;5052418;28;20222;-73
2023/04/23 13:39:27;;;;;;;3.47;2.72;;;;;;;;;;5051042;28;20603;-73
2023/04/23 13:41:53;;;;;;;5.00;2.92;;;;;;;;;;5036997;28;20210;-73
2023/04/23 13:44:21;;;;;;;3.13;2.60;;;;;;;;;;5052192;28;20219;-73
2023/04/23 13:46:48;;;;;;;3.25;2.80;;;;;;;;;;5046250;28;20210;-74
2023/04/23 13:49:21;;;;;;;3.20;2.90;;;;;;;;;;5065479;28;20218;-73
2023/04/23 13:51:52;;;;;;;4.20;3.05;;;;;;;;;;5064045;28;20214;-73
2023/04/23 13:54:23;;;;;;;3.20;2.90;;;;;;;;;;5062330;28;20214;-73
2023/04/23 13:56:53;;;;;;;3.10;2.78;;;;;;;;;;5053281;28;20217;-73
2023/04/23 13:59:25;;;;;;;3.75;3.20;;;;;;;;;;5053988;28;20225;-73
2023/04/23 14:01:53;;;;;;;4.05;3.20;;;;;;;;;;5054453;28;20687;-73
2023/04/23 14:04:19;;;;;;;4.93;3.17;;;;;;;;;;5029770;28;20233;-73
2023/04/23 14:06:45;;;;;;;4.45;3.22;;;;;;;;;;5035246;28;20214;-74
2023/04/23 14:09:12;;;;;;;3.40;3.10;;;;;;;;;;5038443;28;20271;-73
2023/04/23 14:11:43;;;;;;;3.30;2.80;;;;;;;;;;5038220;28;20301;-73
2023/04/23 14:14:08;;;;;;;4.65;3.10;;;;;;;;;;5046595;28;20321;-73
2023/04/23 14:16:34;;;;;;;3.17;2.88;;;;;;;;;;5052590;28;20794;-73
2023/04/23 14:18:59;;;;;;;3.70;3.20;;;;;;;;;;5061222;28;20213;-72
2023/04/23 14:21:32;;;;;;;3.50;3.15;;;;;;;;;;5067090;28;20680;-72
2023/04/23 14:24:07;;;;;;;6.63;3.20;;;;;;;;;;5031220;28;20310;-73
2023/04/23 14:26:39;;;;;;;3.83;2.90;;;;;;;;;;5065962;28;20250;-73
2023/04/23 14:29:28;;;;;;;2.78;2.58;;;;;;;;;;5057773;28;20312;-73
2023/04/23 14:31:54;;;;;;;3.45;2.72;;;;;;;;;;5062542;28;20215;-74
2023/04/23 14:34:24;;;;;;;3.03;2.75;;;;;;;;;;5080544;28;20301;-73
2023/04/23 14:36:51;;;;;;;4.38;2.42;;;;;;;;;;5076824;28;20223;-74
2023/04/23 14:39:20;;;;;;;2.30;2.05;;;;;;;;;;5081044;28;20306;-73